Time;durP1;ratioP1;P1;durP2;ratioP2;P2;SDS_P1;SDS_P2;PMS_P1;PMS_P2;Temp;Humidity;BMP_temperature;BMP_pressure;BME280_temperature;BME280_humidity;BME280_pressure;Samples;Min_cycle;Max_cycle;Signal;HPM_P1;HPM_P2
2022/03/23 14:35:33;;;;;;;12.27;5.57;;;;;;;29.33;6.97;101195.53;5007263;28;105935;-71
2022/03/23 14:38:06;;;;;;;9.68;6.40;;;;;;;28.99;7.62;101190.50;4998669;28;106205;-68
2022/03/23 14:40:36;;;;;;;9.77;6.43;;;;;;;28.79;7.55;101183.03;5003737;28;106059;-69
2022/03/23 14:43:25;;;;;;;8.77;5.57;;;;;;;28.59;8.25;101175.50;5003976;28;107794;-70
2022/03/23 14:45:51;;;;;;;9.38;5.43;;;;;;;28.42;8.36;101172.13;5002513;28;105999;-72
2022/03/23 14:48:35;;;;;;;7.38;5.35;;;;;;;28.31;8.07;101163.03;5005285;28;106097;-71
2022/03/23 14:51:02;;;;;;;11.43;5.22;;;;;;;28.16;8.34;101169.28;5004286;28;106329;-72
2022/03/23 14:53:29;;;;;;;10.23;4.97;;;;;;;27.93;8.41;101165.81;5004183;28;105960;-70
2022/03/23 14:55:56;;;;;;;15.38;5.25;;;;;;;27.68;8.34;101163.69;5003402;28;106089;-72
2022/03/23 14:58:32;;;;;;;7.88;4.55;;;;;;;27.47;8.51;101163.53;5004460;28;105768;-72
2022/03/23 15:01:01;;;;;;;11.32;5.22;;;;;;;27.34;8.55;101162.03;5004411;28;105938;-70
2022/03/23 15:03:32;;;;;;;9.45;5.50;;;;;;;27.11;8.75;101160.44;5003624;28;106578;-68
2022/03/23 15:14:10;;;;;;;10.05;4.75;;;;;;;25.83;9.23;101143.16;5004513;28;106426;-74
2022/03/23 15:16:38;;;;;;;10.38;5.65;;;;;;;25.52;9.79;101139.94;5004438;28;105834;-75
2022/03/23 15:19:08;;;;;;;11.13;5.82;;;;;;;25.20;10.22;101148.63;5004744;28;106468;-77
2022/03/23 15:21:34;;;;;;;10.20;4.88;;;;;;;24.89;10.50;101147.22;5003658;28;106059;-76
2022/03/23 15:24:01;;;;;;;5.32;4.05;;;;;;;24.58;10.26;101146.59;5003277;28;106358;-79
2022/03/23 15:26:26;;;;;;;8.07;4.50;;;;;;;24.21;10.19;101147.69;5003312;28;105806;-75
2022/03/23 15:28:54;;;;;;;9.77;4.32;;;;;;;23.95;10.10;101138.13;5004285;28;105998;-75
2022/03/23 15:31:20;;;;;;;7.18;4.20;;;;;;;23.72;10.41;101136.19;5003792;28;106668;-76
2022/03/23 15:33:47;;;;;;;6.95;3.80;;;;;;;23.54;10.96;101140.66;5003106;28;106601;-75
2022/03/23 15:36:15;;;;;;;6.72;3.63;;;;;;;23.36;10.77;101133.41;5003912;28;105912;-77
2022/03/23 15:38:41;;;;;;;6.13;3.88;;;;;;;23.13;10.90;101131.44;5004438;28;105734;-75
2022/03/23 15:41:07;;;;;;;7.93;3.80;;;;;;;22.89;10.93;101133.19;5004227;28;106097;-72
2022/03/23 15:43:32;;;;;;;7.22;4.15;;;;;;;22.68;11.05;101138.06;5003460;28;114613;-79
2022/03/23 15:45:58;;;;;;;6.80;3.78;;;;;;;22.47;11.26;101137.47;4993893;28;106035;-76
2022/03/23 15:48:27;;;;;;;7.95;4.15;;;;;;;22.28;11.34;101141.19;4991213;28;106073;-72
2022/03/23 15:50:53;;;;;;;10.00;3.90;;;;;;;22.07;11.38;101129.72;4990840;28;106268;-72
2022/03/23 15:53:20;;;;;;;5.55;3.83;;;;;;;21.88;11.75;101131.56;4990543;28;106043;-77
2022/03/23 15:55:46;;;;;;;7.53;4.00;;;;;;;21.73;11.96;101128.38;4990281;28;106007;-74
2022/03/23 15:58:11;;;;;;;7.10;3.42;;;;;;;21.57;11.71;101125.16;4991158;28;105826;-85
2022/03/23 16:00:37;;;;;;;9.82;4.47;;;;;;;21.40;11.76;101134.84;4990653;28;106238;-77
2022/03/23 16:03:04;;;;;;;10.00;4.32;;;;;;;21.22;11.97;101139.13;4990073;28;105827;-69
2022/03/23 16:05:30;;;;;;;7.80;4.43;;;;;;;21.07;12.07;101127.75;4990108;28;106084;-68
2022/03/23 16:07:55;;;;;;;8.57;4.32;;;;;;;20.93;11.91;101133.25;4991052;28;106204;-71
2022/03/23 16:10:21;;;;;;;6.75;4.10;;;;;;;20.78;12.19;101132.69;4990530;28;106100;-72
2022/03/23 16:12:47;;;;;;;7.93;3.90;;;;;;;20.63;12.34;101132.94;4989274;28;106143;-73
2022/03/23 16:15:13;;;;;;;7.47;4.35;;;;;;;20.48;12.31;101133.19;4989561;28;105932;-77
2022/03/23 16:17:38;;;;;;;11.02;4.60;;;;;;;20.33;12.54;101133.44;4990251;28;106176;-72
2022/03/23 16:20:11;;;;;;;8.93;4.68;;;;;;;20.17;12.31;101132.00;4989523;28;106218;-73
2022/03/23 16:22:38;;;;;;;8.80;5.45;;;;;;;20.02;12.61;101128.72;4989052;28;106150;-73
2022/03/23 16:25:08;;;;;;;8.27;4.40;;;;;;;19.87;12.87;101134.34;4989485;28;106058;-71
2022/03/23 16:27:34;;;;;;;7.27;4.50;;;;;;;19.72;12.80;101131.81;4987300;28;106644;-72
2022/03/23 16:30:01;;;;;;;6.38;4.63;;;;;;;19.55;13.09;101129.53;4989941;28;106514;-71
2022/03/23 16:32:27;;;;;;;17.25;7.25;;;;;;;19.42;13.30;101124.09;4989374;28;106589;-74
2022/03/23 16:34:53;;;;;;;14.48;7.05;;;;;;;19.31;13.15;101130.94;4988734;28;106269;-72
2022/03/23 16:37:19;;;;;;;16.15;7.65;;;;;;;19.19;13.26;101136.13;4989844;28;105997;-73
2022/03/23 16:39:45;;;;;;;19.13;10.00;;;;;;;19.04;13.30;101132.75;4987572;28;106166;-73
2022/03/23 16:42:10;;;;;;;21.92;10.57;;;;;;;18.89;13.44;101133.75;4987777;28;107351;-73
2022/03/23 16:44:36;;;;;;;17.70;10.43;;;;;;;18.77;13.61;101133.47;4988120;28;106016;-72
2022/03/23 16:47:01;;;;;;;24.30;9.98;;;;;;;18.64;13.71;101132.59;4990934;28;106306;-72
2022/03/23 16:49:27;;;;;;;15.80;8.13;;;;;;;18.47;14.00;101127.53;4968992;28;106078;-71
2022/03/23 16:51:52;;;;;;;20.88;8.10;;;;;;;18.31;14.24;101131.38;4969141;28;107068;-76
2022/03/23 16:54:18;;;;;;;14.35;7.45;;;;;;;18.14;14.29;101124.63;4969204;28;106048;-73
2022/03/23 16:56:45;;;;;;;13.95;7.10;;;;;;;17.98;14.55;101125.78;4968963;28;106001;-72
2022/03/23 16:59:12;;;;;;;13.65;7.38;;;;;;;17.82;14.97;101135.75;4969613;28;106022;-72
2022/03/23 17:01:37;;;;;;;18.23;7.53;;;;;;;17.66;14.91;101136.91;4968966;28;106265;-76
2022/03/23 17:12:29;;;;;;;21.48;7.18;;;;;;;17.01;16.23;101139.56;4999656;28;106639;-72
2022/03/23 17:15:03;;;;;;;20.00;7.38;;;;;;;16.84;16.47;101144.31;4997088;28;106055;-71
2022/03/23 17:17:30;;;;;;;22.50;7.45;;;;;;;16.69;16.64;101146.16;4995278;28;106005;-72
2022/03/23 17:19:58;;;;;;;16.33;6.80;;;;;;;16.56;16.61;101146.84;4998482;28;106117;-72
2022/03/23 17:22:25;;;;;;;13.02;6.35;;;;;;;16.42;16.99;101154.72;4993606;28;106780;-77
2022/03/23 17:24:51;;;;;;;12.80;6.93;;;;;;;16.30;17.09;101153.50;4981292;28;105998;-72
2022/03/23 17:27:17;;;;;;;15.07;7.38;;;;;;;16.18;17.51;101157.66;4989612;28;106063;-72
2022/03/23 17:29:44;;;;;;;12.10;6.10;;;;;;;16.04;17.41;101160.13;4997647;28;106295;-73
2022/03/23 17:32:10;;;;;;;10.38;5.68;;;;;;;15.93;17.39;101163.28;4994640;28;106158;-72
2022/03/23 17:34:36;;;;;;;15.85;6.75;;;;;;;15.82;17.27;101163.72;4998038;28;106202;-72
2022/03/23 17:37:02;;;;;;;15.77;6.75;;;;;;;15.72;17.47;101164.75;4999639;28;106640;-73
2022/03/23 17:39:31;;;;;;;14.90;6.30;;;;;;;15.60;17.64;101157.31;4997070;28;106018;-72
2022/03/23 17:42:01;;;;;;;16.13;6.32;;;;;;;15.47;17.70;101164.09;4997966;28;106023;-72
2022/03/23 17:44:27;;;;;;;17.80;6.85;;;;;;;15.34;17.84;101166.56;4999456;28;106016;-77
2022/03/23 17:46:53;;;;;;;14.02;6.90;;;;;;;15.20;17.77;101169.00;4997952;28;106088;-72
2022/03/23 17:49:18;;;;;;;14.93;7.28;;;;;;;15.09;18.03;101166.72;4997357;28;106177;-72
2022/03/23 17:51:44;;;;;;;15.07;6.68;;;;;;;14.99;18.19;101169.59;4985204;28;106230;-72
2022/03/23 17:54:11;;;;;;;17.17;7.30;;;;;;;14.90;18.33;101173.34;4985667;28;106036;-79
2022/03/23 17:56:40;;;;;;;18.77;9.05;;;;;;;14.80;18.38;101170.84;4984777;28;106070;-72
2022/03/23 17:59:09;;;;;;;31.75;20.48;;;;;;;14.73;18.41;101167.19;4988515;28;105958;-72
2022/03/23 18:01:35;;;;;;;16.13;10.90;;;;;;;14.64;18.55;101173.59;4985318;28;107929;-71
2022/03/23 18:04:03;;;;;;;18.10;9.75;;;;;;;14.55;18.61;101173.59;4987274;28;106414;-73
2022/03/23 18:06:28;;;;;;;23.77;8.82;;;;;;;14.46;18.88;101182.69;4989712;28;106039;-76
2022/03/23 18:08:54;;;;;;;16.27;8.43;;;;;;;14.36;18.83;101176.66;4987579;28;105996;-74
2022/03/23 18:11:20;;;;;;;21.35;8.52;;;;;;;14.26;19.15;101184.91;4985314;28;108824;-74
2022/03/23 18:13:46;;;;;;;36.67;10.02;;;;;;;14.18;19.09;101183.06;4986560;28;117110;-71
2022/03/23 18:16:11;;;;;;;21.45;9.35;;;;;;;14.12;19.61;101183.75;4983530;28;106127;-72
2022/03/23 18:18:37;;;;;;;17.13;8.40;;;;;;;14.03;19.34;101179.41;4987207;28;106784;-72
2022/03/23 18:21:02;;;;;;;15.45;8.75;;;;;;;13.95;19.38;101185.59;4987547;28;106072;-76
2022/03/23 18:23:32;;;;;;;22.50;8.50;;;;;;;13.88;19.96;101182.75;4987745;28;105974;-75
2022/03/23 18:25:58;;;;;;;18.40;9.17;;;;;;;13.80;19.29;101188.09;4988701;28;106195;-71
2022/03/23 18:28:24;;;;;;;17.92;8.70;;;;;;;13.71;19.89;101183.78;4988038;28;106227;-73
2022/03/23 18:30:50;;;;;;;16.23;9.68;;;;;;;13.64;20.13;101188.94;4988028;28;106606;-70
2022/03/23 18:33:20;;;;;;;22.35;9.52;;;;;;;13.58;20.05;101186.09;4985598;28;106215;-70
2022/03/23 18:35:47;;;;;;;18.98;9.70;;;;;;;13.49;20.27;101188.75;4990404;28;106020;-70
2022/03/23 18:38:12;;;;;;;21.00;9.43;;;;;;;13.43;20.38;101186.72;4988160;28;106134;-71
2022/03/23 18:40:38;;;;;;;20.13;10.27;;;;;;;13.35;20.62;101184.91;4987296;28;115582;-70
2022/03/23 18:43:04;;;;;;;20.67;10.80;;;;;;;13.29;20.63;101198.88;4986522;28;106123;-70
2022/03/23 18:45:30;;;;;;;20.83;10.77;;;;;;;13.23;20.51;101190.66;4987819;28;105830;-69
2022/03/23 18:47:55;;;;;;;21.40;10.38;;;;;;;13.14;21.04;101190.66;4987475;28;105764;-73
2022/03/23 18:50:21;;;;;;;21.50;10.93;;;;;;;13.08;20.88;101196.66;4986784;28;106128;-71
2022/03/23 18:52:46;;;;;;;17.70;10.25;;;;;;;13.01;21.02;101196.47;4987167;28;105854;-71
2022/03/23 18:55:12;;;;;;;17.80;10.43;;;;;;;12.94;21.13;101192.75;4987410;28;106301;-70
2022/03/23 18:57:41;;;;;;;18.52;11.13;;;;;;;12.88;20.98;101193.41;4986603;28;106208;-71
2022/03/23 19:00:08;;;;;;;18.48;10.75;;;;;;;12.81;21.66;101195.88;4987140;28;106205;-71
2022/03/23 19:02:33;;;;;;;17.38;11.15;;;;;;;12.75;21.67;101193.81;4987010;28;106005;-75
2022/03/23 19:04:59;;;;;;;27.02;12.10;;;;;;;12.70;21.60;101197.00;4987476;28;105924;-71
2022/03/23 19:07:25;;;;;;;24.75;12.05;;;;;;;12.65;21.90;101201.16;4986770;28;106321;-73
2022/03/23 19:09:51;;;;;;;27.35;13.18;;;;;;;12.59;21.91;101205.28;4986718;28;106923;-71
2022/03/23 19:12:17;;;;;;;32.20;12.50;;;;;;;12.53;22.25;101204.09;4987125;28;105798;-69
2022/03/23 19:14:42;;;;;;;25.00;12.30;;;;;;;12.47;22.67;101202.03;4988037;28;105863;-73
2022/03/23 19:17:09;;;;;;;24.48;13.63;;;;;;;12.43;22.66;101194.50;4987225;28;106123;-75
2022/03/23 19:19:36;;;;;;;22.83;13.35;;;;;;;12.35;22.80;101208.66;4996598;28;107097;-73
2022/03/23 19:22:02;;;;;;;32.58;14.35;;;;;;;12.29;22.81;101201.28;5010210;28;105989;-75
2022/03/23 19:24:28;;;;;;;41.65;17.05;;;;;;;12.22;22.89;101208.22;5010174;28;105962;-71
2022/03/23 19:26:53;;;;;;;37.20;15.45;;;;;;;12.13;23.14;101202.81;4992482;28;106120;-71
2022/03/23 19:29:19;;;;;;;43.83;16.65;;;;;;;12.06;22.82;101215.13;4997291;28;106181;-70
2022/03/23 19:31:44;;;;;;;33.72;15.52;;;;;;;11.99;23.33;101217.56;4998499;28;108527;-71
2022/03/23 19:34:10;;;;;;;33.17;15.30;;;;;;;11.93;23.43;101214.63;4998372;28;106491;-71
2022/03/23 19:36:35;;;;;;;39.33;14.52;;;;;;;11.86;23.48;101214.41;4997592;28;106089;-70
2022/03/23 19:39:00;;;;;;;31.77;14.35;;;;;;;11.81;23.47;101212.22;4999260;28;109624;-71
2022/03/23 19:41:26;;;;;;;27.70;14.55;;;;;;;11.75;24.11;101212.81;4998693;28;106037;-70
2022/03/23 19:43:53;;;;;;;32.85;14.40;;;;;;;11.71;24.40;101214.13;4998573;28;106332;-75
2022/03/23 19:46:19;;;;;;;23.60;13.60;;;;;;;11.65;24.40;101212.91;4995764;28;106244;-71
2022/03/23 19:48:45;;;;;;;25.98;14.93;;;;;;;11.60;24.13;101212.50;4998737;28;106179;-72
2022/03/23 19:51:10;;;;;;;25.02;14.43;;;;;;;11.56;23.95;101210.31;4998800;28;105820;-74
2022/03/23 19:53:36;;;;;;;27.08;14.60;;;;;;;11.51;24.81;101205.44;4996799;28;106655;-69
2022/03/23 19:56:01;;;;;;;32.25;15.45;;;;;;;11.49;24.54;101212.75;4994937;28;106296;-70
2022/03/23 19:58:26;;;;;;;25.90;14.40;;;;;;;11.42;24.49;101207.16;4998867;28;105939;-73
2022/03/23 20:00:52;;;;;;;26.50;14.52;;;;;;;11.35;24.45;101209.59;4993209;28;106465;-75
2022/03/23 20:03:17;;;;;;;24.13;14.32;;;;;;;11.31;24.54;101218.06;4990603;28;106276;-73
2022/03/23 20:05:43;;;;;;;30.85;15.38;;;;;;;11.27;24.76;101209.50;4989477;28;106817;-74
2022/03/23 20:08:09;;;;;;;31.00;16.25;;;;;;;11.21;24.85;101219.94;4988994;28;105937;-76
2022/03/23 20:10:35;;;;;;;33.85;15.38;;;;;;;11.15;25.50;101216.88;4989653;28;105923;-72
2022/03/23 20:13:03;;;;;;;30.33;16.23;;;;;;;11.10;25.47;101213.81;4989766;28;106209;-71
2022/03/23 20:15:30;;;;;;;29.42;15.68;;;;;;;11.05;25.21;101221.41;4987180;28;106234;-70
2022/03/23 20:17:55;;;;;;;24.63;15.80;;;;;;;11.00;25.83;101226.34;4986083;28;106416;-71
2022/03/23 20:20:21;;;;;;;32.60;17.23;;;;;;;10.96;26.15;101220.50;4988985;28;106291;-74
2022/03/23 20:22:46;;;;;;;28.85;16.67;;;;;;;10.91;25.65;101216.59;4990714;28;105943;-71
2022/03/23 20:25:11;;;;;;;28.33;16.17;;;;;;;10.86;25.56;101217.00;4990353;28;106373;-71
2022/03/23 20:27:37;;;;;;;29.50;16.60;;;;;;;10.80;25.94;101221.13;4989074;28;113971;-72
2022/03/23 20:30:04;;;;;;;32.40;17.70;;;;;;;10.77;25.75;101218.75;4989661;28;106135;-72
2022/03/23 20:32:30;;;;;;;31.63;15.30;;;;;;;10.73;26.25;101214.69;4989558;28;105979;-72
2022/03/23 20:34:55;;;;;;;35.20;16.75;;;;;;;10.71;26.32;101223.81;4988462;28;105953;-71
2022/03/23 20:37:20;;;;;;;32.85;16.67;;;;;;;10.67;26.18;101220.59;4989044;28;106290;-71
2022/03/23 20:39:46;;;;;;;31.17;16.65;;;;;;;10.63;26.21;101221.88;4989249;28;106008;-73
2022/03/23 20:42:12;;;;;;;25.08;16.00;;;;;;;10.58;26.57;101221.47;4990003;28;105835;-75
2022/03/23 20:44:37;;;;;;;36.97;16.80;;;;;;;10.53;26.45;101221.06;4989699;28;106560;-70
2022/03/23 20:47:03;;;;;;;35.20;16.33;;;;;;;10.48;26.68;101222.34;4989852;28;105879;-74
2022/03/23 20:49:29;;;;;;;29.48;16.08;;;;;;;10.44;26.86;101228.94;4990017;28;106111;-85
2022/03/23 20:51:55;;;;;;;28.98;16.65;;;;;;;10.42;26.93;101230.06;4990538;28;105968;-74
2022/03/23 20:54:21;;;;;;;31.00;16.58;;;;;;;10.37;26.85;101229.66;4989394;28;106229;-73
2022/03/23 20:56:47;;;;;;;31.92;17.77;;;;;;;10.31;26.90;101229.22;4989729;28;106043;-70
2022/03/23 20:59:12;;;;;;;32.05;16.70;;;;;;;10.28;27.07;101228.69;4989444;28;105939;-75
2022/03/23 21:01:37;;;;;;;29.95;18.00;;;;;;;10.25;27.05;101229.78;4989273;28;106203;-79
2022/03/23 21:04:03;;;;;;;32.78;16.13;;;;;;;10.22;27.11;101229.22;4989189;28;106227;-81
2022/03/23 21:06:31;;;;;;;30.20;17.15;;;;;;;10.18;27.12;101227.84;4988733;28;105964;-73
2022/03/23 21:08:57;;;;;;;30.33;17.00;;;;;;;10.14;27.04;101225.47;4988823;28;105933;-78
2022/03/23 21:11:23;;;;;;;27.00;16.20;;;;;;;10.11;27.26;101228.38;4989847;28;105873;-73
2022/03/23 21:13:48;;;;;;;26.95;15.90;;;;;;;10.08;27.09;101231.34;4988877;28;106137;-73
2022/03/23 21:16:14;;;;;;;27.95;17.00;;;;;;;10.06;27.18;101225.34;4989397;28;106397;-83
2022/03/23 21:18:40;;;;;;;28.83;16.15;;;;;;;10.03;27.50;101225.59;4988842;28;106031;-77
2022/03/23 21:21:07;;;;;;;33.35;17.20;;;;;;;10.03;27.50;101235.41;4989624;28;105842;-77
2022/03/23 21:23:33;;;;;;;30.58;17.73;;;;;;;9.97;27.67;101231.50;4988574;28;106236;-83
2022/03/23 21:26:01;;;;;;;30.13;17.83;;;;;;;9.94;27.61;101234.44;4987837;28;107751;-80
2022/03/23 21:28:27;;;;;;;30.67;17.38;;;;;;;9.91;27.46;101230.25;4988850;28;106643;-71
2022/03/23 21:30:53;;;;;;;28.30;16.65;;;;;;;9.88;27.70;101235.00;4990413;28;105754;-83
2022/03/23 21:33:21;;;;;;;27.95;16.55;;;;;;;9.86;27.83;101228.97;4988167;28;106134;-74
2022/03/23 21:35:51;;;;;;;31.50;17.30;;;;;;;9.82;27.91;101233.75;4989003;28;105877;-71
2022/03/23 21:38:17;;;;;;;31.90;17.00;;;;;;;9.78;27.84;101232.34;4988690;28;105854;-76
2022/03/23 21:40:42;;;;;;;32.05;17.38;;;;;;;9.75;28.02;101233.44;4987924;28;106006;-70
2022/03/23 21:43:07;;;;;;;29.33;16.80;;;;;;;9.70;28.53;101234.84;4988327;28;105860;-70
2022/03/23 21:45:33;;;;;;;31.58;16.38;;;;;;;9.68;28.16;101237.66;4987906;28;106080;-80
2022/03/23 21:47:59;;;;;;;39.20;17.75;;;;;;;9.63;28.14;101230.06;4988335;28;106741;-75
2022/03/23 21:50:24;;;;;;;30.70;16.15;;;;;;;9.61;28.08;101240.03;4988790;28;105973;-73
2022/03/23 21:52:51;;;;;;;38.75;17.48;;;;;;;9.57;28.50;101233.28;4988866;28;106182;-83
2022/03/23 21:55:18;;;;;;;35.63;17.95;;;;;;;9.55;28.23;101237.91;4988848;28;106098;-80
2022/03/23 21:57:44;;;;;;;34.90;18.30;;;;;;;9.52;28.93;101237.34;4988575;28;106080;-71
2022/03/23 22:00:13;;;;;;;30.55;16.15;;;;;;;9.47;28.71;101238.63;4989254;28;105903;-70
2022/03/23 22:02:40;;;;;;;34.47;17.37;;;;;;;9.45;28.46;101237.88;4988311;28;106210;-77
2022/03/23 22:05:06;;;;;;;28.33;16.52;;;;;;;9.42;28.80;101246.16;4988309;28;106867;-81
2022/03/23 22:07:32;;;;;;;26.42;17.13;;;;;;;9.39;28.39;101242.91;4988403;28;106302;-75
